KSCK/SCK METAR and TAF weather

Enter ICAO airport designator
Station Type Date Time Source
KSCK METAR 2020/02/19 10:55 UTC NOAA

KSCK 191055Z AUTO 00000KT 10SM CLR 04/M01 A3006 RMK AO2 SLP178 T00391006


Station Type Date Time Source
KSCK Decoded METAR 2020/02/19 10:55 UTC NOAA

STOCKTON METROPOLITAN AIRPORT , CA, United States (KSCK) 37-54N 121-14W 10M
Feb 19, 2020 - 05:55 AM EST / 2020.02.19 1055 UTC
Wind: Calm:0
Visibility: 10 mile(s):0
Sky conditions: clear
Temperature: 39.0 F (3.9 C)
Dew Point: 30.9 F (-0.6 C)
Relative Humidity: 72%
Pressure (altimeter): 30.06 in. Hg (1017 hPa)
ob: KSCK 191055Z AUTO 00000KT 10SM CLR 04/M01 A3006 RMK AO2 SLP178 T00391006
cycle: 11

Station Type Date Time Source
KSCK TAF 2020/02/19 12:22 UTC NOAA

TAF KSCK 191120Z 1912/2012 VRB05KT P6SM FEW250

Example: see airport list